createdAt,value
2019-03-31T00:01:55.225Z,95493.04
2019-03-31T00:04:22.919Z,95490.14
2019-03-31T00:06:50.804Z,95491.95
2019-03-31T00:09:18.607Z,95482.47
2019-03-31T00:11:46.487Z,95470.88
2019-03-31T00:14:14.196Z,95470.88
2019-03-31T00:16:42.042Z,95490.86
2019-03-31T00:19:09.929Z,95482.42
2019-03-31T00:21:37.953Z,95479.61
2019-03-31T00:24:05.747Z,95484.78
2019-03-31T00:26:33.491Z,95482.05
2019-03-31T00:29:01.222Z,95463.16
2019-03-31T00:31:29.024Z,95479.41
2019-03-31T00:33:56.758Z,95473.80
2019-03-31T00:36:24.559Z,95465.69
2019-03-31T00:38:52.333Z,95465.27
2019-03-31T00:41:20.088Z,95466.19
2019-03-31T00:43:47.908Z,95459.15
2019-03-31T00:46:15.641Z,95467.20
2019-03-31T00:48:43.526Z,95456.75
2019-03-31T00:51:11.362Z,95457.98
2019-03-31T00:53:39.101Z,95463.70
2019-03-31T00:56:06.833Z,95459.13
2019-03-31T00:58:34.538Z,95453.46
2019-03-31T01:01:35.459Z,95448.44
2019-03-31T01:03:50.719Z,95451.44
2019-03-31T01:06:19.520Z,95449.55
2019-03-31T01:08:47.349Z,95450.14
2019-03-31T01:11:15.518Z,95445.75
2019-03-31T01:13:43.289Z,95434.66
2019-03-31T01:16:12.670Z,95443.42
2019-03-31T01:18:40.568Z,95440.08
2019-03-31T01:21:08.306Z,95442.50
2019-03-31T01:23:36.093Z,95436.34
2019-03-31T01:26:03.767Z,95441.95
2019-03-31T01:28:31.779Z,95436.67
2019-03-31T01:30:59.583Z,95442.09
2019-03-31T01:33:27.669Z,95444.50
2019-03-31T01:35:55.392Z,95444.03
2019-03-31T01:38:23.119Z,95439.56
2019-03-31T01:40:50.962Z,95433.56
2019-03-31T01:43:18.767Z,95437.92
2019-03-31T01:45:46.612Z,95439.58
2019-03-31T01:48:14.377Z,95437.03
2019-03-31T01:50:42.185Z,95435.14
2019-03-31T01:53:09.888Z,95439.48
2019-03-31T01:55:37.692Z,95431.75
2019-03-31T01:58:05.432Z,95431.77
2019-03-31T02:00:41.716Z,95432.02
2019-03-31T02:03:09.452Z,95431.19
2019-03-31T02:05:37.231Z,95432.00
2019-03-31T02:08:04.976Z,95421.03
2019-03-31T02:10:32.696Z,95415.98
2019-03-31T02:13:00.445Z,95417.45
2019-03-31T02:15:28.410Z,95415.66
2019-03-31T02:17:56.261Z,95419.20
2019-03-31T02:20:24.093Z,95397.08
2019-03-31T02:22:51.821Z,95397.08
2019-03-31T02:25:19.540Z,95411.64
2019-03-31T02:27:47.370Z,95408.06
2019-03-31T02:30:15.215Z,95411.13
2019-03-31T02:32:43.006Z,95409.12
2019-03-31T02:35:10.825Z,95411.54
2019-03-31T02:37:38.606Z,95398.53
2019-03-31T02:40:06.527Z,95398.59
2019-03-31T02:42:34.402Z,95404.67
2019-03-31T02:45:02.246Z,95403.59
2019-03-31T02:47:29.978Z,95401.64
2019-03-31T02:49:57.680Z,95401.92
2019-03-31T02:52:25.608Z,95403.20
2019-03-31T02:54:53.392Z,95400.30
2019-03-31T02:57:21.137Z,95398.88
2019-03-31T02:59:48.918Z,95399.39
2019-03-31T03:02:16.616Z,95403.32
2019-03-31T03:04:44.308Z,95404.73
2019-03-31T03:07:12.172Z,95399.72
2019-03-31T03:09:40.006Z,95396.08
2019-03-31T03:12:07.889Z,95397.82
2019-03-31T03:14:35.737Z,95400.31
2019-03-31T03:17:03.490Z,95402.17
2019-03-31T03:19:31.269Z,95400.31
2019-03-31T03:21:59.142Z,95404.52
2019-03-31T03:24:27.005Z,95407.91
2019-03-31T03:26:54.863Z,95411.93
2019-03-31T03:29:22.669Z,95417.09
2019-03-31T03:31:50.617Z,95398.02
2019-03-31T03:34:18.424Z,95398.02
2019-03-31T03:36:46.162Z,95404.41
2019-03-31T03:39:13.994Z,95404.41
2019-03-31T03:41:41.795Z,95402.09
2019-03-31T03:44:09.505Z,95384.97
2019-03-31T03:46:37.271Z,95384.97
2019-03-31T03:49:05.217Z,95392.02
2019-03-31T03:51:33.133Z,95388.25
2019-03-31T03:54:00.871Z,95387.95
2019-03-31T03:56:29.260Z,95389.59
2019-03-31T03:58:57.359Z,95386.08
2019-03-31T04:01:27.755Z,95408.04
2019-03-31T04:03:55.541Z,95410.97
2019-03-31T04:06:23.272Z,95410.97
2019-03-31T04:08:50.993Z,95409.92
2019-03-31T04:11:21.538Z,95409.92
2019-03-31T04:13:48.762Z,95414.59
2019-03-31T04:16:16.527Z,95410.39
2019-03-31T04:18:44.232Z,95410.39
2019-03-31T04:21:11.946Z,95406.51
2019-03-31T04:23:39.685Z,95398.70
2019-03-31T04:26:07.840Z,95380.02
2019-03-31T04:28:35.380Z,95380.02
2019-03-31T04:31:03.414Z,95398.27
2019-03-31T04:33:49.556Z,95398.05
2019-03-31T04:36:00.581Z,95399.86
2019-03-31T04:38:28.297Z,95399.86
2019-03-31T04:40:56.427Z,95400.20
2019-03-31T04:43:24.339Z,95381.39
2019-03-31T04:45:52.185Z,95379.03
2019-03-31T04:48:19.909Z,95379.03
2019-03-31T04:50:47.908Z,95384.05
2019-03-31T04:53:15.738Z,95384.05
2019-03-31T04:55:43.578Z,95384.15
2019-03-31T04:58:11.333Z,95384.15
2019-03-31T05:00:39.394Z,95390.25
2019-03-31T05:03:07.495Z,95399.91
2019-03-31T05:05:35.226Z,95394.45
2019-03-31T05:08:02.991Z,95403.11
2019-03-31T05:10:30.692Z,95403.30
2019-03-31T05:12:58.394Z,95399.64
2019-03-31T05:15:26.094Z,95386.22
2019-03-31T05:17:53.869Z,95386.22
2019-03-31T05:20:21.744Z,95395.81
2019-03-31T05:22:52.697Z,95391.52
2019-03-31T05:25:19.016Z,95391.90
2019-03-31T05:27:46.878Z,95376.35
2019-03-31T05:30:14.684Z,95376.35
2019-03-31T05:32:42.510Z,95369.70
2019-03-31T05:35:10.305Z,95395.34
2019-03-31T05:37:50.163Z,95395.34
2019-03-31T05:40:07.555Z,95392.86
2019-03-31T05:42:35.281Z,95382.52
2019-03-31T05:45:03.211Z,95376.88
2019-03-31T05:47:31.070Z,95376.88
2019-03-31T05:49:59.032Z,95378.24
2019-03-31T05:52:26.897Z,95366.41
2019-03-31T05:54:54.666Z,95369.63
2019-03-31T05:57:22.409Z,95357.59
2019-03-31T05:59:50.195Z,95355.33
2019-03-31T06:02:17.973Z,95355.33
2019-03-31T06:04:45.827Z,95372.91
2019-03-31T06:07:13.588Z,95372.91
2019-03-31T06:09:41.300Z,95357.00
2019-03-31T06:12:09.037Z,95357.00
2019-03-31T06:14:36.806Z,95356.30
2019-03-31T06:17:04.543Z,95375.87
2019-03-31T06:19:32.336Z,95374.67
2019-03-31T06:22:00.201Z,95372.27
2019-03-31T06:24:28.122Z,95383.70
2019-03-31T06:26:55.854Z,95377.55
2019-03-31T06:29:23.832Z,95371.25
2019-03-31T06:31:51.575Z,95370.35
2019-03-31T06:34:19.325Z,95370.59
2019-03-31T06:36:47.113Z,95371.09
2019-03-31T06:39:14.851Z,95368.17
2019-03-31T06:41:42.583Z,95366.42
2019-03-31T06:44:10.392Z,95365.42
2019-03-31T06:46:38.318Z,95355.97
2019-03-31T06:49:06.158Z,95357.14
2019-03-31T06:51:34.019Z,95353.48
2019-03-31T06:54:01.968Z,95358.42
2019-03-31T06:56:29.835Z,95365.65
2019-03-31T06:58:57.641Z,95359.30
2019-03-31T07:01:25.491Z,95363.61
2019-03-31T07:03:53.253Z,95357.21
2019-03-31T07:06:21.064Z,95352.84
2019-03-31T07:08:48.937Z,95355.17
2019-03-31T07:11:16.745Z,95350.86
2019-03-31T07:13:44.505Z,95349.52
2019-03-31T07:16:12.237Z,95345.56
2019-03-31T07:18:40.071Z,95343.70
2019-03-31T07:21:07.817Z,95349.10
2019-03-31T07:23:35.719Z,95341.80
2019-03-31T07:26:03.549Z,95345.95
2019-03-31T07:28:31.330Z,95343.28
2019-03-31T07:30:59.459Z,95343.63
2019-03-31T07:33:27.455Z,95335.78
2019-03-31T07:35:55.488Z,95341.30
2019-03-31T07:38:23.267Z,95337.69
2019-03-31T07:40:51.186Z,95336.41
2019-03-31T07:43:19.286Z,95340.56
2019-03-31T07:45:47.271Z,95337.45
2019-03-31T07:48:15.102Z,95332.97
2019-03-31T07:50:42.854Z,95333.30
2019-03-31T07:53:10.556Z,95326.58
2019-03-31T07:55:38.381Z,95324.67
2019-03-31T07:58:06.186Z,95322.21
2019-03-31T08:00:33.908Z,95323.39
2019-03-31T08:03:01.647Z,95319.78
2019-03-31T08:05:33.381Z,95317.16
2019-03-31T08:07:58.884Z,95316.95
2019-03-31T08:10:26.713Z,95321.78
2019-03-31T08:12:54.577Z,95318.56
2019-03-31T08:15:22.350Z,95310.48
2019-03-31T08:17:50.129Z,95306.64
2019-03-31T08:20:17.969Z,95308.84
2019-03-31T08:22:45.709Z,95308.44
2019-03-31T08:25:16.465Z,95295.95
2019-03-31T08:27:44.279Z,95299.19
2019-03-31T08:30:12.166Z,95298.50
2019-03-31T08:32:39.886Z,95286.17
2019-03-31T08:35:07.685Z,95290.99
2019-03-31T08:37:35.407Z,95279.77
2019-03-31T08:40:03.221Z,95275.19
2019-03-31T08:42:30.947Z,95274.30
2019-03-31T08:44:58.793Z,95265.84
2019-03-31T08:47:26.590Z,95269.84
2019-03-31T08:49:55.956Z,95262.81
2019-03-31T08:52:23.770Z,95259.64
2019-03-31T08:54:51.571Z,95260.17
2019-03-31T08:57:19.379Z,95256.98
2019-03-31T08:59:47.119Z,95248.95
2019-03-31T09:02:32.835Z,95248.42
2019-03-31T09:05:00.647Z,95247.42
2019-03-31T09:07:28.371Z,95243.09
2019-03-31T09:09:56.173Z,95238.27
2019-03-31T09:12:23.946Z,95234.80
2019-03-31T09:14:51.814Z,95242.23
2019-03-31T09:17:19.586Z,95231.45
2019-03-31T09:19:47.376Z,95229.36
2019-03-31T09:22:15.123Z,95234.61
2019-03-31T09:24:43.073Z,95235.41
2019-03-31T09:27:10.936Z,95227.10
2019-03-31T09:29:38.730Z,95217.97
2019-03-31T09:32:06.506Z,95216.94
2019-03-31T09:34:34.273Z,95208.58
2019-03-31T09:37:02.122Z,95211.14
2019-03-31T09:39:30.000Z,95205.55
2019-03-31T09:41:57.842Z,95202.44
2019-03-31T09:44:25.717Z,95186.91
2019-03-31T09:46:53.495Z,95192.28
2019-03-31T09:49:21.290Z,95181.93
2019-03-31T09:51:49.099Z,95183.05
2019-03-31T09:54:16.983Z,95189.59
2019-03-31T09:56:44.713Z,95179.11
2019-03-31T09:59:12.484Z,95174.74
2019-03-31T10:01:40.251Z,95169.53
2019-03-31T10:04:08.055Z,95171.36
2019-03-31T10:06:35.927Z,95162.17
2019-03-31T10:09:03.969Z,95158.69
2019-03-31T10:11:31.724Z,95163.80
2019-03-31T10:13:59.851Z,95162.11
2019-03-31T10:16:27.608Z,95164.98
2019-03-31T10:18:55.569Z,95157.34
2019-03-31T10:21:23.370Z,95154.15
2019-03-31T10:23:51.296Z,95147.83
2019-03-31T10:26:31.078Z,95150.27
2019-03-31T10:28:48.574Z,95147.55
2019-03-31T10:31:16.290Z,95138.39
2019-03-31T10:33:43.997Z,95141.69
2019-03-31T10:36:12.911Z,95134.75
2019-03-31T10:38:40.754Z,95134.99
2019-03-31T10:41:08.654Z,95137.92
2019-03-31T10:43:36.553Z,95133.44
2019-03-31T10:46:04.440Z,95127.55
2019-03-31T10:48:32.239Z,95127.52
2019-03-31T10:51:00.102Z,95128.97
2019-03-31T10:53:27.829Z,95121.61
2019-03-31T10:55:55.566Z,95125.40
2019-03-31T10:58:23.460Z,95126.59
2019-03-31T11:00:51.392Z,95123.17
2019-03-31T11:03:19.107Z,95117.59
2019-03-31T11:05:46.836Z,95109.56
2019-03-31T11:08:14.672Z,95102.72
2019-03-31T11:10:42.660Z,95108.53
2019-03-31T11:13:10.374Z,95095.91
2019-03-31T11:15:38.200Z,95095.93
2019-03-31T11:18:06.073Z,95097.19
2019-03-31T11:20:34.062Z,95094.38
2019-03-31T11:23:19.265Z,95094.77
2019-03-31T11:25:47.080Z,95083.61
2019-03-31T11:28:14.827Z,95086.16
2019-03-31T11:30:42.718Z,95085.77
2019-03-31T11:33:10.483Z,95081.44
2019-03-31T11:35:38.224Z,95085.25
2019-03-31T11:38:12.827Z,95074.27
2019-03-31T11:40:40.689Z,95076.62
2019-03-31T11:43:08.523Z,95066.78
2019-03-31T11:45:36.067Z,95057.61
2019-03-31T11:48:04.130Z,95058.91
2019-03-31T11:50:31.549Z,95056.94
2019-03-31T11:52:59.072Z,95049.80
2019-03-31T11:55:26.616Z,95053.48
2019-03-31T11:57:54.061Z,95049.73
2019-03-31T12:00:22.367Z,95043.60
2019-03-31T12:02:49.803Z,95041.20
2019-03-31T12:05:17.252Z,95037.00
2019-03-31T12:07:47.133Z,95043.92
2019-03-31T12:10:14.279Z,95031.35
2019-03-31T12:12:41.834Z,95032.22
2019-03-31T12:15:09.293Z,95028.88
2019-03-31T12:17:36.810Z,95036.52
2019-03-31T12:20:04.606Z,95040.36
2019-03-31T12:22:32.256Z,95034.67
2019-03-31T12:24:59.821Z,95031.70
2019-03-31T12:27:27.400Z,95027.00
2019-03-31T12:29:54.851Z,95019.66
2019-03-31T12:32:22.468Z,95023.70
2019-03-31T12:34:50.008Z,95021.66
2019-03-31T12:37:17.580Z,95012.54
2019-03-31T12:39:44.968Z,95019.70
2019-03-31T12:42:12.959Z,95011.22
2019-03-31T12:44:40.522Z,95018.92
2019-03-31T12:47:07.969Z,95006.92
2019-03-31T12:49:35.540Z,95005.34
2019-03-31T12:52:02.981Z,95004.97
2019-03-31T12:54:30.705Z,95000.05
2019-03-31T12:56:58.137Z,94990.81
2019-03-31T12:59:27.479Z,94997.72
2019-03-31T13:01:54.868Z,94992.67
2019-03-31T13:04:22.485Z,94987.96
2019-03-31T13:06:50.017Z,94993.90
2019-03-31T13:09:17.592Z,94980.81
2019-03-31T13:11:45.043Z,94982.08
2019-03-31T13:14:12.550Z,94983.13
2019-03-31T13:16:40.020Z,94978.13
2019-03-31T13:19:07.492Z,94974.05
2019-03-31T13:21:35.214Z,94968.84
2019-03-31T13:24:02.736Z,94966.61
2019-03-31T13:26:30.506Z,94977.67
2019-03-31T13:28:58.164Z,94965.67
2019-03-31T13:31:25.621Z,94966.39
2019-03-31T13:33:53.081Z,94963.28
2019-03-31T13:36:20.588Z,94960.66
2019-03-31T13:38:48.051Z,94959.72
2019-03-31T13:41:15.560Z,94948.59
2019-03-31T13:43:43.134Z,94942.55
2019-03-31T13:46:10.559Z,94949.30
2019-03-31T13:48:38.355Z,94947.06
2019-03-31T13:51:06.011Z,94935.13
2019-03-31T13:53:33.621Z,94934.25
2019-03-31T13:56:01.145Z,94940.66
2019-03-31T13:58:29.106Z,94931.89
2019-03-31T14:00:58.113Z,94933.13
2019-03-31T14:03:25.923Z,94927.69
2019-03-31T14:05:53.557Z,94936.03
2019-03-31T14:08:25.912Z,94933.55
2019-03-31T14:10:50.283Z,94922.78
2019-03-31T14:13:17.728Z,94924.98
2019-03-31T14:15:45.449Z,94918.13
2019-03-31T14:18:13.178Z,94913.28
2019-03-31T14:20:40.638Z,94910.27
2019-03-31T14:23:08.105Z,94904.46
2019-03-31T14:25:35.739Z,94911.09
2019-03-31T14:28:03.534Z,94913.02
2019-03-31T14:30:31.281Z,94903.59
2019-03-31T14:32:59.050Z,94915.67
2019-03-31T14:35:26.934Z,94918.41
2019-03-31T14:37:54.383Z,94925.35
2019-03-31T14:40:21.848Z,94916.52
2019-03-31T14:42:49.422Z,94911.34
2019-03-31T14:45:16.975Z,94913.53
2019-03-31T14:47:44.578Z,94903.34
2019-03-31T14:50:12.083Z,94911.06
2019-03-31T14:52:39.742Z,94905.28
2019-03-31T14:55:07.472Z,94914.03
2019-03-31T14:57:35.224Z,94905.73
2019-03-31T15:00:14.170Z,94906.89
2019-03-31T15:02:32.578Z,94907.08
2019-03-31T15:05:00.450Z,94907.13
2019-03-31T15:07:28.245Z,94907.19
2019-03-31T15:09:56.039Z,94909.22
2019-03-31T15:12:23.941Z,94900.31
2019-03-31T15:14:51.827Z,94904.77
2019-03-31T15:17:19.550Z,94895.66
2019-03-31T15:19:47.554Z,94901.16
2019-03-31T15:22:15.543Z,94896.30
2019-03-31T15:24:43.281Z,94902.27
2019-03-31T15:27:11.367Z,94906.96
2019-03-31T15:29:39.139Z,94904.70
2019-03-31T15:32:07.161Z,94902.36
2019-03-31T15:34:34.903Z,94901.75
2019-03-31T15:37:02.845Z,94901.73
2019-03-31T15:39:30.601Z,94901.59
2019-03-31T15:41:58.340Z,94897.25
2019-03-31T15:44:26.117Z,94905.67
2019-03-31T15:46:54.028Z,94910.28
2019-03-31T15:49:21.885Z,94909.95
2019-03-31T15:51:49.760Z,94912.55
2019-03-31T15:54:17.635Z,94916.14
2019-03-31T15:56:45.498Z,94916.39
2019-03-31T15:59:13.420Z,94915.98
2019-03-31T16:01:43.169Z,94913.88
2019-03-31T16:04:11.623Z,94926.57
2019-03-31T16:06:39.387Z,94919.61
2019-03-31T16:09:07.217Z,94926.48
2019-03-31T16:11:34.965Z,94927.92
2019-03-31T16:14:02.816Z,94928.66
2019-03-31T16:16:31.016Z,94920.55
2019-03-31T16:18:58.845Z,94933.36
2019-03-31T16:21:26.636Z,94932.81
2019-03-31T16:23:54.878Z,94932.25
2019-03-31T16:26:22.683Z,94928.14
2019-03-31T16:28:50.646Z,94927.50
2019-03-31T16:31:18.438Z,94923.67
2019-03-31T16:33:46.280Z,94927.69
2019-03-31T16:36:14.141Z,94930.00
2019-03-31T16:38:41.872Z,94931.68
2019-03-31T16:41:09.884Z,94931.64
2019-03-31T16:43:37.883Z,94934.94
2019-03-31T16:46:05.720Z,94931.17
2019-03-31T16:48:33.488Z,94932.05
2019-03-31T16:51:01.242Z,94936.42
2019-03-31T16:53:29.001Z,94937.23
2019-03-31T16:55:56.916Z,94937.84
2019-03-31T16:58:24.858Z,94941.23
2019-03-31T17:00:52.665Z,94936.24
2019-03-31T17:03:20.496Z,94940.17
2019-03-31T17:05:48.362Z,94944.34
2019-03-31T17:08:16.162Z,94944.46
2019-03-31T17:10:44.091Z,94944.95
2019-03-31T17:13:11.990Z,94950.45
2019-03-31T17:15:39.745Z,94957.83
2019-03-31T17:18:07.486Z,94950.58
2019-03-31T17:20:35.264Z,94957.45
2019-03-31T17:23:03.148Z,94962.31
2019-03-31T17:25:30.916Z,94963.71
2019-03-31T17:27:58.777Z,94965.36
2019-03-31T17:30:26.510Z,94967.04
2019-03-31T17:32:54.326Z,94963.05
2019-03-31T17:35:22.281Z,94964.61
2019-03-31T17:37:50.355Z,94970.52
2019-03-31T17:40:18.157Z,94969.87
2019-03-31T17:42:47.835Z,94970.14
2019-03-31T17:45:17.283Z,94978.19
2019-03-31T17:47:45.318Z,94979.33
2019-03-31T17:50:13.106Z,94984.86
2019-03-31T17:52:40.845Z,94982.41
2019-03-31T17:55:08.616Z,94991.55
2019-03-31T17:57:36.384Z,94993.55
2019-03-31T18:00:04.863Z,94993.93
2019-03-31T18:02:32.623Z,94994.89
2019-03-31T18:05:00.588Z,94990.77
2019-03-31T18:07:28.486Z,94997.59
2019-03-31T18:09:56.411Z,94997.17
2019-03-31T18:12:24.209Z,95006.02
2019-03-31T18:14:51.930Z,95002.13
2019-03-31T18:17:19.759Z,95001.84
2019-03-31T18:19:47.608Z,95004.44
2019-03-31T18:22:16.971Z,95011.52
2019-03-31T18:24:45.239Z,95001.34
2019-03-31T18:27:13.178Z,95004.93
2019-03-31T18:29:41.036Z,95004.16
2019-03-31T18:32:08.942Z,95001.65
2019-03-31T18:34:38.401Z,95010.34
2019-03-31T18:37:06.166Z,95014.95
2019-03-31T18:39:33.963Z,95023.75
2019-03-31T18:42:01.916Z,95025.09
2019-03-31T18:44:29.716Z,95018.20
2019-03-31T18:46:57.663Z,95027.54
2019-03-31T18:49:25.401Z,95026.99
2019-03-31T18:51:53.191Z,95034.41
2019-03-31T18:54:47.351Z,95029.58
2019-03-31T18:57:34.009Z,95022.25
2019-03-31T19:00:19.314Z,95029.47
2019-03-31T19:03:05.973Z,95023.92
2019-03-31T19:05:58.418Z,95019.62
2019-03-31T19:08:57.484Z,95022.42
2019-03-31T19:11:44.197Z,95023.42
2019-03-31T19:14:33.603Z,95024.02
2019-03-31T19:17:13.689Z,95018.16
2019-03-31T19:20:09.315Z,95021.02
2019-03-31T19:22:49.214Z,95012.66
2019-03-31T19:25:38.974Z,95013.34
2019-03-31T19:28:25.736Z,95017.20
2019-03-31T19:31:11.226Z,95020.17
2019-03-31T19:33:56.580Z,95022.84
2019-03-31T19:36:36.030Z,95021.16
2019-03-31T19:39:38.025Z,95019.51
2019-03-31T19:42:33.603Z,95022.30
2019-03-31T19:45:38.167Z,95018.00
2019-03-31T19:48:24.637Z,95028.36
2019-03-31T19:51:23.354Z,95026.25
2019-03-31T19:54:01.274Z,95030.88
2019-03-31T19:56:51.001Z,95024.94
2019-03-31T19:59:46.747Z,95026.45
2019-03-31T20:02:40.128Z,95022.38
2019-03-31T20:05:31.625Z,95023.08
2019-03-31T20:08:19.460Z,95027.60
2019-03-31T20:11:04.831Z,95034.44
2019-03-31T20:13:48.000Z,95031.66
2019-03-31T20:16:33.043Z,95034.55
2019-03-31T20:19:18.245Z,95044.38
2019-03-31T20:22:03.132Z,95043.17
2019-03-31T20:24:49.414Z,95043.94
2019-03-31T20:27:38.536Z,95041.70
2019-03-31T20:30:17.939Z,95041.02
2019-03-31T20:33:07.281Z,95041.51
2019-03-31T20:35:59.142Z,95036.17
2019-03-31T20:38:36.886Z,95039.65
2019-03-31T20:41:29.624Z,95032.93
2019-03-31T20:43:57.727Z,95038.85
2019-03-31T20:46:27.310Z,95032.66
2019-03-31T20:48:54.986Z,95036.48
2019-03-31T20:51:22.766Z,95031.98
2019-03-31T20:53:50.633Z,95031.45
2019-03-31T20:56:18.548Z,95031.19
2019-03-31T20:58:46.285Z,95026.70
2019-03-31T21:01:17.077Z,95023.63
2019-03-31T21:03:47.968Z,95022.50
2019-03-31T21:06:15.832Z,95024.27
2019-03-31T21:08:43.572Z,95025.16
2019-03-31T21:11:11.449Z,95031.16
2019-03-31T21:13:39.215Z,95024.45
2019-03-31T21:16:06.964Z,95026.91
2019-03-31T21:18:34.687Z,95026.86
2019-03-31T21:21:02.440Z,95025.98
2019-03-31T21:23:30.239Z,95031.94
2019-03-31T21:25:57.965Z,95034.77
2019-03-31T21:28:25.709Z,95032.80
2019-03-31T21:30:53.458Z,95024.81
2019-03-31T21:33:21.191Z,95031.62
2019-03-31T21:35:48.921Z,95033.02
2019-03-31T21:38:16.880Z,95033.02
2019-03-31T21:40:44.748Z,95026.62
2019-03-31T21:43:12.501Z,95032.64
2019-03-31T21:45:40.284Z,95035.44
2019-03-31T21:48:08.006Z,95031.28
2019-03-31T21:50:35.791Z,95027.80
2019-03-31T21:53:03.658Z,95034.88
2019-03-31T21:55:31.375Z,95026.13
2019-03-31T21:57:59.213Z,95033.37
2019-03-31T22:00:45.840Z,95030.66
2019-03-31T22:03:13.550Z,95024.61
2019-03-31T22:05:41.378Z,95028.14
2019-03-31T22:08:09.130Z,95025.09
2019-03-31T22:10:36.846Z,95026.16
2019-03-31T22:13:04.572Z,95023.84
2019-03-31T22:15:32.490Z,95025.28
2019-03-31T22:18:00.340Z,95021.07
2019-03-31T22:20:28.202Z,95020.98
2019-03-31T22:22:56.022Z,95012.77
2019-03-31T22:25:23.760Z,95017.70
2019-03-31T22:27:51.666Z,95014.26
2019-03-31T22:30:19.811Z,95014.00
2019-03-31T22:32:47.523Z,95022.61
2019-03-31T22:35:15.245Z,95011.28
2019-03-31T22:37:43.034Z,95013.91
2019-03-31T22:40:10.900Z,95010.32
2019-03-31T22:42:38.868Z,95014.58
2019-03-31T22:45:07.104Z,95009.45
2019-03-31T22:47:34.860Z,95013.12
2019-03-31T22:50:02.691Z,95013.25
2019-03-31T22:52:30.415Z,95016.56
2019-03-31T22:54:58.342Z,95013.45
2019-03-31T22:57:26.080Z,95012.70
2019-03-31T22:59:53.816Z,95013.47
2019-03-31T23:02:21.545Z,94997.90
2019-03-31T23:04:49.293Z,95006.66
2019-03-31T23:07:17.152Z,95008.33
2019-03-31T23:09:45.129Z,95005.13
2019-03-31T23:12:12.850Z,95013.98
2019-03-31T23:14:40.647Z,95011.83
2019-03-31T23:17:08.480Z,95010.30
2019-03-31T23:19:36.231Z,95006.52
2019-03-31T23:22:04.145Z,95010.03
2019-03-31T23:24:31.904Z,95005.36
2019-03-31T23:26:59.674Z,95002.84
2019-03-31T23:29:27.438Z,94996.08
2019-03-31T23:31:55.248Z,95000.31
2019-03-31T23:34:23.024Z,94998.59
2019-03-31T23:36:50.875Z,94997.16
2019-03-31T23:39:18.666Z,94997.64
2019-03-31T23:41:46.475Z,94992.81
2019-03-31T23:44:14.364Z,94980.63
2019-03-31T23:46:42.068Z,94986.02
2019-03-31T23:49:09.951Z,94987.41
2019-03-31T23:51:37.758Z,94995.08
2019-03-31T23:54:05.479Z,94987.95
2019-03-31T23:56:33.427Z,94988.76
2019-03-31T23:59:01.226Z,94990.16
